createdAt,value
2022-12-19T00:00:03.417Z,1010.27
2022-12-19T00:05:03.241Z,1010.27
2022-12-19T00:10:03.431Z,1010.28
2022-12-19T00:15:03.269Z,1010.27
2022-12-19T00:20:03.510Z,1010.32
2022-12-19T00:25:03.360Z,1010.43
2022-12-19T00:30:03.408Z,1010.52
2022-12-19T00:35:04.205Z,1010.59
2022-12-19T00:40:03.532Z,1010.59
2022-12-19T00:45:03.187Z,1010.59
2022-12-19T00:50:03.468Z,1010.57
2022-12-19T00:55:05.006Z,1010.59
2022-12-19T01:00:03.620Z,1010.79
2022-12-19T01:05:03.147Z,1010.84
2022-12-19T01:10:03.359Z,1010.89
2022-12-19T01:15:05.345Z,1010.83
2022-12-19T01:20:03.354Z,1010.75
2022-12-19T01:25:03.127Z,1010.76
2022-12-19T01:30:03.344Z,1010.88
2022-12-19T01:35:03.465Z,1011.03
2022-12-19T01:40:03.329Z,1011.06
2022-12-19T01:45:03.166Z,1011.02
2022-12-19T01:50:03.361Z,1011.05
2022-12-19T01:55:03.126Z,1011.12
2022-12-19T02:00:03.397Z,1011.13
2022-12-19T02:05:03.116Z,1011.11
2022-12-19T02:10:03.262Z,1011.03
2022-12-19T02:15:03.591Z,1011.0
2022-12-19T02:20:04.516Z,1011.0
2022-12-19T02:25:03.061Z,1011.09
2022-12-19T02:30:03.298Z,1011.06
2022-12-19T02:35:03.099Z,1010.96
2022-12-19T02:40:03.755Z,1011.02
2022-12-19T02:45:03.114Z,1011.04
2022-12-19T02:50:08.506Z,1010.98
2022-12-19T02:55:03.141Z,1010.75
2022-12-19T03:00:03.443Z,1010.63
2022-12-19T03:05:03.071Z,1010.58
2022-12-19T03:10:03.395Z,1010.49
2022-12-19T03:15:03.141Z,1010.38
2022-12-19T03:20:03.467Z,1010.28
2022-12-19T03:25:03.148Z,1010.23
2022-12-19T03:30:03.488Z,1010.16
2022-12-19T03:35:03.147Z,1010.13
2022-12-19T03:40:03.385Z,1010.11
2022-12-19T03:45:03.244Z,1010.03
2022-12-19T03:50:03.372Z,1009.95
2022-12-19T03:55:03.236Z,1009.84
2022-12-19T04:00:03.433Z,1009.79
2022-12-19T04:05:03.084Z,1009.72
2022-12-19T04:10:03.828Z,1009.69
2022-12-19T04:15:04.286Z,1009.63
2022-12-19T04:20:03.406Z,1009.58
2022-12-19T04:25:03.174Z,1009.48
2022-12-19T04:30:03.218Z,1009.44
2022-12-19T04:35:03.114Z,1009.49
2022-12-19T04:40:03.308Z,1009.5
2022-12-19T04:45:03.146Z,1009.4
2022-12-19T04:50:03.364Z,1009.41
2022-12-19T04:55:03.127Z,1009.38
2022-12-19T05:00:03.419Z,1009.43
2022-12-19T05:05:03.172Z,1009.5
2022-12-19T05:10:03.295Z,1009.53
2022-12-19T05:15:03.101Z,1009.52
2022-12-19T05:20:03.437Z,1009.51
2022-12-19T05:25:03.178Z,1009.54
2022-12-19T05:30:03.450Z,1009.54
2022-12-19T05:35:03.068Z,1009.47
2022-12-19T05:40:03.262Z,1009.48
2022-12-19T05:45:03.070Z,1009.47
2022-12-19T05:50:03.356Z,1009.43
2022-12-19T05:55:03.271Z,1009.4
2022-12-19T06:00:03.265Z,1009.38
2022-12-19T06:05:03.121Z,1009.34
2022-12-19T06:10:03.308Z,1009.35
2022-12-19T06:15:03.077Z,1009.35
2022-12-19T06:20:03.357Z,1009.42
2022-12-19T06:25:03.189Z,1009.41
2022-12-19T06:30:03.315Z,1009.55
2022-12-19T06:35:04.537Z,1009.61
2022-12-19T06:40:03.281Z,1009.73
2022-12-19T06:45:03.112Z,1009.79
2022-12-19T06:50:03.368Z,1009.76
2022-12-19T06:55:03.170Z,1009.74
2022-12-19T07:00:03.329Z,1009.8
2022-12-19T07:05:03.043Z,1009.89
2022-12-19T07:10:03.365Z,1009.89
2022-12-19T07:15:03.066Z,1009.92
2022-12-19T07:20:03.327Z,1010.04
2022-12-19T07:25:03.083Z,1010.12
2022-12-19T07:30:03.362Z,1010.1
2022-12-19T07:35:03.030Z,1009.97
2022-12-19T07:40:03.219Z,1009.98
2022-12-19T07:45:03.069Z,1010.03
2022-12-19T07:50:03.378Z,1009.99
2022-12-19T07:55:03.147Z,1010.06
2022-12-19T08:00:03.267Z,1010.19
2022-12-19T08:05:03.098Z,1010.29
2022-12-19T08:10:03.306Z,1010.33
2022-12-19T08:15:03.086Z,1010.31
2022-12-19T08:20:03.370Z,1010.36
2022-12-19T08:25:03.104Z,1010.32
2022-12-19T08:30:03.533Z,1010.4
2022-12-19T08:35:03.059Z,1010.52
2022-12-19T08:40:03.253Z,1010.69
2022-12-19T08:45:03.142Z,1010.7
2022-12-19T08:50:03.326Z,1010.77
2022-12-19T08:55:03.109Z,1010.92
2022-12-19T09:00:03.415Z,1011.01
2022-12-19T09:05:42.157Z,1011.03
2022-12-19T09:10:03.324Z,1011.08
2022-12-19T09:15:03.091Z,1011.06
2022-12-19T09:20:03.406Z,1011.16
2022-12-19T09:25:03.315Z,1011.29
2022-12-19T09:30:03.409Z,1011.42
2022-12-19T09:35:03.022Z,1011.47
2022-12-19T09:40:03.364Z,1011.54
2022-12-19T09:45:03.102Z,1011.59
2022-12-19T09:50:03.436Z,1011.65
2022-12-19T09:55:03.104Z,1011.74
2022-12-19T10:00:03.478Z,1011.83
2022-12-19T10:05:05.162Z,1011.89
2022-12-19T10:11:36.790Z,1011.9
2022-12-19T10:15:03.057Z,1011.92
2022-12-19T10:20:03.367Z,1011.92
2022-12-19T10:25:08.176Z,1012.0
2022-12-19T10:30:03.421Z,1012.12
2022-12-19T10:35:03.156Z,1012.22
2022-12-19T10:40:03.430Z,1012.24
2022-12-19T10:45:03.099Z,1012.28
2022-12-19T10:50:09.139Z,1012.31
2022-12-19T10:55:03.154Z,1012.27
2022-12-19T11:00:04.574Z,1012.33
2022-12-19T11:05:03.166Z,1012.33
2022-12-19T11:10:24.553Z,1012.36
2022-12-19T11:16:52.838Z,1012.36
2022-12-19T11:23:27.335Z,1012.4
2022-12-19T11:30:22.012Z,1012.42
2022-12-19T11:35:03.100Z,1012.54
2022-12-19T11:40:03.293Z,1012.54
2022-12-19T11:45:03.163Z,1012.55
2022-12-19T11:50:03.382Z,1012.56
2022-12-19T11:55:03.194Z,1012.53
2022-12-19T12:00:05.512Z,1012.55
2022-12-19T12:05:03.141Z,1012.61
2022-12-19T12:11:30.004Z,1012.66
2022-12-19T12:20:20.268Z,1012.66
2022-12-19T12:30:04.635Z,1012.69
2022-12-19T12:31:34.906Z,1012.69
2022-12-19T12:31:37.316Z,1012.74
2022-12-19T12:36:48.915Z,1012.74
2022-12-19T12:40:03.299Z,1012.75
2022-12-19T12:45:03.163Z,1012.8
2022-12-19T12:50:03.484Z,1012.79
2022-12-19T12:55:03.182Z,1012.81
2022-12-19T13:00:04.485Z,1012.83
2022-12-19T13:05:03.078Z,1012.8
2022-12-19T13:10:03.428Z,1012.78
2022-12-19T13:15:03.069Z,1012.76
2022-12-19T13:20:03.403Z,1012.77
2022-12-19T13:25:03.126Z,1012.77
2022-12-19T13:30:03.443Z,1012.78
2022-12-19T13:35:23.687Z,1012.78
2022-12-19T13:40:11.897Z,1012.78
2022-12-19T13:45:03.126Z,1012.76
2022-12-19T13:50:03.348Z,1012.71
2022-12-19T13:55:03.135Z,1012.66
2022-12-19T14:00:03.405Z,1012.64
2022-12-19T14:05:03.136Z,1012.61
2022-12-19T14:11:25.516Z,1012.49
2022-12-19T14:15:12.672Z,1012.51
2022-12-19T14:20:28.702Z,1012.42
2022-12-19T14:25:23.380Z,1012.36
2022-12-19T14:30:29.425Z,1012.26
2022-12-19T14:35:29.824Z,1012.3
2022-12-19T14:40:03.433Z,1012.31
2022-12-19T14:50:16.761Z,1012.26
2022-12-19T14:52:52.150Z,1012.15
2022-12-19T14:55:36.215Z,1012.08
2022-12-19T15:00:03.432Z,1012.05
2022-12-19T15:05:03.273Z,1011.98
2022-12-19T15:11:01.554Z,1012.04
2022-12-19T15:15:03.319Z,1011.9
2022-12-19T15:20:03.442Z,1011.84
2022-12-19T15:25:03.141Z,1011.77
2022-12-19T15:30:03.501Z,1011.63
2022-12-19T15:35:03.156Z,1011.53
2022-12-19T15:40:03.264Z,1011.5
2022-12-19T15:45:03.088Z,1011.49
2022-12-19T15:50:03.376Z,1011.44
2022-12-19T15:55:03.175Z,1011.39
2022-12-19T16:00:04.428Z,1011.44
2022-12-19T16:05:04.349Z,1011.49
2022-12-19T16:10:03.298Z,1011.39
2022-12-19T16:15:03.114Z,1011.46
2022-12-19T16:20:03.398Z,1011.68
2022-12-19T16:25:03.136Z,1011.94
2022-12-19T16:30:03.550Z,1012.0
2022-12-19T16:35:03.077Z,1011.92
2022-12-19T16:40:03.314Z,1012.01
2022-12-19T16:45:03.125Z,1012.07
2022-12-19T16:50:03.392Z,1011.8
2022-12-19T16:55:03.237Z,1011.67
2022-12-19T17:00:03.651Z,1011.48
2022-12-19T17:05:03.157Z,1011.33
2022-12-19T17:10:03.351Z,1011.33
2022-12-19T17:15:03.162Z,1011.38
2022-12-19T17:20:03.365Z,1011.42
2022-12-19T17:25:03.162Z,1011.16
2022-12-19T17:30:03.390Z,1011.21
2022-12-19T17:35:03.302Z,1011.11
2022-12-19T17:40:04.360Z,1010.89
2022-12-19T17:45:03.103Z,1010.9
2022-12-19T19:25:03.268Z,1009.49
2022-12-19T19:30:03.397Z,1009.31
2022-12-19T19:35:03.121Z,1009.33
2022-12-19T19:40:03.318Z,1009.33
2022-12-19T19:45:03.124Z,1009.36
2022-12-19T19:50:03.272Z,1009.39
2022-12-19T19:55:03.173Z,1009.32
2022-12-19T20:00:03.396Z,1009.32
2022-12-19T20:05:03.141Z,1009.26
2022-12-19T20:10:03.283Z,1009.18
2022-12-19T20:15:03.176Z,1009.17
2022-12-19T20:20:03.342Z,1009.21
2022-12-19T20:25:03.197Z,1009.26
2022-12-19T20:30:03.469Z,1009.24
2022-12-19T20:35:03.294Z,1009.18
2022-12-19T20:40:03.270Z,1009.26
2022-12-19T20:45:03.259Z,1009.14
2022-12-19T20:50:03.285Z,1009.14
2022-12-19T20:55:03.117Z,1009.09
2022-12-19T21:00:03.381Z,1009.07
2022-12-19T21:05:03.183Z,1009.05
2022-12-19T21:10:03.351Z,1009.11
2022-12-19T21:15:03.091Z,1009.11
2022-12-19T21:20:03.402Z,1009.13
2022-12-19T21:25:03.110Z,1009.18
2022-12-19T21:30:03.399Z,1009.23
2022-12-19T21:35:03.170Z,1009.11
2022-12-19T21:40:03.491Z,1008.94
2022-12-19T21:45:03.136Z,1008.94
2022-12-19T21:50:03.481Z,1009.1
2022-12-19T21:55:03.273Z,1009.25
2022-12-19T22:00:03.431Z,1009.36
2022-12-19T22:05:03.176Z,1009.46
2022-12-19T22:10:03.496Z,1009.59
2022-12-19T22:15:03.122Z,1009.68
2022-12-19T22:20:03.305Z,1009.79
2022-12-19T22:25:03.125Z,1009.71
2022-12-19T22:30:08.669Z,1009.75
2022-12-19T22:35:08.146Z,1009.78
2022-12-19T22:40:08.419Z,1009.78
2022-12-19T22:45:03.185Z,1009.85
2022-12-19T22:50:03.366Z,1009.84
2022-12-19T22:55:03.131Z,1009.88
2022-12-19T23:00:04.365Z,1009.91
2022-12-19T23:05:03.101Z,1010.04
2022-12-19T23:10:03.260Z,1010.25
2022-12-19T23:15:03.107Z,1010.35
2022-12-19T23:20:04.346Z,1010.47
2022-12-19T23:25:03.173Z,1010.53
2022-12-19T23:30:03.487Z,1010.68
2022-12-19T23:35:03.183Z,1010.8
2022-12-19T23:40:03.446Z,1010.81
2022-12-19T23:45:04.158Z,1010.83
2022-12-19T23:50:03.313Z,1010.92
2022-12-19T23:55:03.187Z,1010.95
